sensor_id;sensor_type;location;lat;lon;timestamp;P1;durP1;ratioP1;P2;durP2;ratioP2
36411;SDS011;22445;52.100;5.176;2022-07-03T00:01:34;4.38;;;1.85;;
36411;SDS011;22445;52.100;5.176;2022-07-03T00:04:00;4.13;;;1.92;;
36411;SDS011;22445;52.100;5.176;2022-07-03T00:06:26;3.78;;;2.10;;
36411;SDS011;22445;52.100;5.176;2022-07-03T00:08:52;3.03;;;2.25;;
36411;SDS011;22445;52.100;5.176;2022-07-03T00:11:18;5.35;;;2.65;;
36411;SDS011;22445;52.100;5.176;2022-07-03T00:13:43;4.35;;;3.08;;
36411;SDS011;22445;52.100;5.176;2022-07-03T00:16:09;3.05;;;2.75;;
36411;SDS011;22445;52.100;5.176;2022-07-03T00:18:34;4.60;;;2.08;;
36411;SDS011;22445;52.100;5.176;2022-07-03T00:21:01;4.05;;;2.00;;
36411;SDS011;22445;52.100;5.176;2022-07-03T00:23:38;3.30;;;1.92;;
36411;SDS011;22445;52.100;5.176;2022-07-03T00:26:07;4.10;;;1.90;;
36411;SDS011;22445;52.100;5.176;2022-07-03T00:28:33;4.22;;;2.10;;
36411;SDS011;22445;52.100;5.176;2022-07-03T00:30:58;5.97;;;2.15;;
36411;SDS011;22445;52.100;5.176;2022-07-03T00:33:25;3.50;;;2.40;;
36411;SDS011;22445;52.100;5.176;2022-07-03T00:35:53;2.53;;;2.08;;
36411;SDS011;22445;52.100;5.176;2022-07-03T00:38:21;3.00;;;2.10;;
36411;SDS011;22445;52.100;5.176;2022-07-03T00:40:47;4.53;;;2.40;;
36411;SDS011;22445;52.100;5.176;2022-07-03T00:43:13;4.55;;;2.20;;
36411;SDS011;22445;52.100;5.176;2022-07-03T00:45:40;5.47;;;2.75;;
36411;SDS011;22445;52.100;5.176;2022-07-03T00:48:12;3.40;;;2.25;;
36411;SDS011;22445;52.100;5.176;2022-07-03T00:50:38;4.68;;;2.45;;
36411;SDS011;22445;52.100;5.176;2022-07-03T00:53:10;3.65;;;2.67;;
36411;SDS011;22445;52.100;5.176;2022-07-03T00:55:37;3.45;;;2.63;;
36411;SDS011;22445;52.100;5.176;2022-07-03T00:58:06;5.72;;;2.28;;
36411;SDS011;22445;52.100;5.176;2022-07-03T01:00:31;3.40;;;2.08;;
36411;SDS011;22445;52.100;5.176;2022-07-03T01:03:05;4.50;;;2.47;;
36411;SDS011;22445;52.100;5.176;2022-07-03T01:05:38;4.57;;;2.95;;
36411;SDS011;22445;52.100;5.176;2022-07-03T01:08:12;3.28;;;2.45;;
36411;SDS011;22445;52.100;5.176;2022-07-03T01:18:49;4.55;;;3.08;;
36411;SDS011;22445;52.100;5.176;2022-07-03T01:26:57;3.83;;;2.80;;
36411;SDS011;22445;52.100;5.176;2022-07-03T01:29:26;2.22;;;1.90;;
36411;SDS011;22445;52.100;5.176;2022-07-03T01:31:57;3.30;;;3.00;;
36411;SDS011;22445;52.100;5.176;2022-07-03T01:34:25;3.78;;;3.00;;
36411;SDS011;22445;52.100;5.176;2022-07-03T01:36:51;3.60;;;2.83;;
36411;SDS011;22445;52.100;5.176;2022-07-03T01:39:19;3.45;;;2.95;;
36411;SDS011;22445;52.100;5.176;2022-07-03T01:41:48;4.85;;;3.20;;
36411;SDS011;22445;52.100;5.176;2022-07-03T01:44:15;6.47;;;3.42;;
36411;SDS011;22445;52.100;5.176;2022-07-03T01:46:41;4.63;;;3.15;;
36411;SDS011;22445;52.100;5.176;2022-07-03T01:49:11;3.55;;;2.75;;
36411;SDS011;22445;52.100;5.176;2022-07-03T01:51:38;4.97;;;2.92;;
36411;SDS011;22445;52.100;5.176;2022-07-03T01:54:05;3.58;;;2.83;;
36411;SDS011;22445;52.100;5.176;2022-07-03T01:56:32;4.55;;;2.80;;
36411;SDS011;22445;52.100;5.176;2022-07-03T01:58:58;4.00;;;2.83;;
36411;SDS011;22445;52.100;5.176;2022-07-03T02:04:09;2.72;;;2.47;;
36411;SDS011;22445;52.100;5.176;2022-07-03T02:09:44;3.25;;;2.58;;
36411;SDS011;22445;52.100;5.176;2022-07-03T02:12:14;2.70;;;2.40;;
36411;SDS011;22445;52.100;5.176;2022-07-03T02:14:45;3.10;;;2.50;;
36411;SDS011;22445;52.100;5.176;2022-07-03T02:17:17;3.08;;;2.78;;
36411;SDS011;22445;52.100;5.176;2022-07-03T02:22:25;5.15;;;3.10;;
36411;SDS011;22445;52.100;5.176;2022-07-03T02:24:52;2.60;;;2.40;;
36411;SDS011;22445;52.100;5.176;2022-07-03T02:27:25;2.88;;;2.45;;
36411;SDS011;22445;52.100;5.176;2022-07-03T02:30:06;2.97;;;2.75;;
36411;SDS011;22445;52.100;5.176;2022-07-03T02:32:32;4.55;;;2.85;;
36411;SDS011;22445;52.100;5.176;2022-07-03T02:35:05;3.47;;;2.65;;
36411;SDS011;22445;52.100;5.176;2022-07-03T02:37:33;3.78;;;3.38;;
36411;SDS011;22445;52.100;5.176;2022-07-03T02:40:03;7.05;;;3.33;;
36411;SDS011;22445;52.100;5.176;2022-07-03T02:42:47;3.78;;;2.80;;
36411;SDS011;22445;52.100;5.176;2022-07-03T02:45:21;5.22;;;2.78;;
36411;SDS011;22445;52.100;5.176;2022-07-03T02:47:56;5.40;;;2.70;;
36411;SDS011;22445;52.100;5.176;2022-07-03T02:50:27;3.42;;;2.92;;
36411;SDS011;22445;52.100;5.176;2022-07-03T02:56:37;3.88;;;3.15;;
36411;SDS011;22445;52.100;5.176;2022-07-03T02:58:58;3.45;;;2.72;;
36411;SDS011;22445;52.100;5.176;2022-07-03T03:01:30;3.60;;;2.70;;
36411;SDS011;22445;52.100;5.176;2022-07-03T03:06:35;3.80;;;2.92;;
36411;SDS011;22445;52.100;5.176;2022-07-03T03:09:03;3.95;;;3.03;;
36411;SDS011;22445;52.100;5.176;2022-07-03T03:11:37;3.38;;;2.50;;
36411;SDS011;22445;52.100;5.176;2022-07-03T03:14:08;2.70;;;2.50;;
36411;SDS011;22445;52.100;5.176;2022-07-03T03:16:37;2.80;;;2.55;;
36411;SDS011;22445;52.100;5.176;2022-07-03T03:19:12;3.30;;;3.00;;
36411;SDS011;22445;52.100;5.176;2022-07-03T03:21:41;3.42;;;2.83;;
36411;SDS011;22445;52.100;5.176;2022-07-03T03:24:11;3.35;;;2.97;;
36411;SDS011;22445;52.100;5.176;2022-07-03T03:26:37;3.63;;;2.85;;
36411;SDS011;22445;52.100;5.176;2022-07-03T03:29:03;4.35;;;2.70;;
36411;SDS011;22445;52.100;5.176;2022-07-03T03:31:29;4.18;;;2.97;;
36411;SDS011;22445;52.100;5.176;2022-07-03T03:33:54;3.78;;;3.00;;
36411;SDS011;22445;52.100;5.176;2022-07-03T03:36:20;3.17;;;2.63;;
36411;SDS011;22445;52.100;5.176;2022-07-03T03:38:47;3.33;;;3.03;;
36411;SDS011;22445;52.100;5.176;2022-07-03T03:41:12;3.10;;;2.75;;
36411;SDS011;22445;52.100;5.176;2022-07-03T03:43:38;3.08;;;2.45;;
36411;SDS011;22445;52.100;5.176;2022-07-03T03:46:04;3.70;;;2.55;;
36411;SDS011;22445;52.100;5.176;2022-07-03T03:48:31;2.78;;;2.47;;
36411;SDS011;22445;52.100;5.176;2022-07-03T03:50:57;3.95;;;2.97;;
36411;SDS011;22445;52.100;5.176;2022-07-03T03:53:26;4.22;;;3.03;;
36411;SDS011;22445;52.100;5.176;2022-07-03T03:56:02;4.35;;;2.70;;
36411;SDS011;22445;52.100;5.176;2022-07-03T03:58:32;5.93;;;2.95;;
36411;SDS011;22445;52.100;5.176;2022-07-03T04:01:00;3.28;;;2.65;;
36411;SDS011;22445;52.100;5.176;2022-07-03T04:03:27;2.40;;;2.20;;
36411;SDS011;22445;52.100;5.176;2022-07-03T04:05:53;3.20;;;2.90;;
36411;SDS011;22445;52.100;5.176;2022-07-03T04:08:19;3.30;;;2.65;;
36411;SDS011;22445;52.100;5.176;2022-07-03T04:10:46;2.63;;;2.15;;
36411;SDS011;22445;52.100;5.176;2022-07-03T04:13:12;2.75;;;2.47;;
36411;SDS011;22445;52.100;5.176;2022-07-03T04:15:38;3.78;;;2.67;;
36411;SDS011;22445;52.100;5.176;2022-07-03T04:18:03;2.75;;;2.03;;
36411;SDS011;22445;52.100;5.176;2022-07-03T04:20:29;2.60;;;2.40;;
36411;SDS011;22445;52.100;5.176;2022-07-03T04:22:56;2.72;;;2.20;;
36411;SDS011;22445;52.100;5.176;2022-07-03T04:25:22;3.03;;;1.90;;
36411;SDS011;22445;52.100;5.176;2022-07-03T04:27:48;4.50;;;2.47;;
36411;SDS011;22445;52.100;5.176;2022-07-03T04:30:13;2.45;;;2.25;;
36411;SDS011;22445;52.100;5.176;2022-07-03T04:32:39;6.05;;;3.45;;
36411;SDS011;22445;52.100;5.176;2022-07-03T04:35:05;2.95;;;2.28;;
36411;SDS011;22445;52.100;5.176;2022-07-03T04:37:31;2.15;;;1.95;;
36411;SDS011;22445;52.100;5.176;2022-07-03T04:39:56;2.50;;;2.10;;
36411;SDS011;22445;52.100;5.176;2022-07-03T04:42:22;3.78;;;2.35;;
36411;SDS011;22445;52.100;5.176;2022-07-03T04:44:47;2.13;;;1.70;;
36411;SDS011;22445;52.100;5.176;2022-07-03T04:47:13;2.58;;;1.63;;
36411;SDS011;22445;52.100;5.176;2022-07-03T04:49:42;1.98;;;1.60;;
36411;SDS011;22445;52.100;5.176;2022-07-03T04:52:08;2.17;;;1.30;;
36411;SDS011;22445;52.100;5.176;2022-07-03T04:54:34;1.30;;;1.20;;
36411;SDS011;22445;52.100;5.176;2022-07-03T04:57:00;3.17;;;1.20;;
36411;SDS011;22445;52.100;5.176;2022-07-03T04:59:25;4.03;;;1.25;;
36411;SDS011;22445;52.100;5.176;2022-07-03T05:01:51;2.63;;;1.13;;
36411;SDS011;22445;52.100;5.176;2022-07-03T05:04:16;2.25;;;0.80;;
36411;SDS011;22445;52.100;5.176;2022-07-03T05:06:42;1.65;;;0.88;;
36411;SDS011;22445;52.100;5.176;2022-07-03T05:09:08;2.08;;;1.00;;
36411;SDS011;22445;52.100;5.176;2022-07-03T05:11:33;3.22;;;1.02;;
36411;SDS011;22445;52.100;5.176;2022-07-03T05:13:59;4.70;;;1.20;;
36411;SDS011;22445;52.100;5.176;2022-07-03T05:16:24;1.58;;;1.17;;
36411;SDS011;22445;52.100;5.176;2022-07-03T05:18:50;3.13;;;1.00;;
36411;SDS011;22445;52.100;5.176;2022-07-03T05:21:15;3.22;;;1.00;;
36411;SDS011;22445;52.100;5.176;2022-07-03T05:23:41;3.72;;;1.15;;
36411;SDS011;22445;52.100;5.176;2022-07-03T05:26:07;3.53;;;1.58;;
36411;SDS011;22445;52.100;5.176;2022-07-03T05:28:32;2.63;;;1.10;;
36411;SDS011;22445;52.100;5.176;2022-07-03T05:30:58;5.05;;;1.10;;
36411;SDS011;22445;52.100;5.176;2022-07-03T05:33:24;3.88;;;1.20;;
36411;SDS011;22445;52.100;5.176;2022-07-03T05:35:49;2.83;;;0.90;;
36411;SDS011;22445;52.100;5.176;2022-07-03T05:38:15;4.25;;;0.88;;
36411;SDS011;22445;52.100;5.176;2022-07-03T05:41:01;3.20;;;1.10;;
36411;SDS011;22445;52.100;5.176;2022-07-03T05:43:26;2.45;;;0.77;;
36411;SDS011;22445;52.100;5.176;2022-07-03T05:45:52;5.30;;;1.55;;
36411;SDS011;22445;52.100;5.176;2022-07-03T05:48:17;2.22;;;0.90;;
36411;SDS011;22445;52.100;5.176;2022-07-03T05:50:42;4.72;;;0.80;;
36411;SDS011;22445;52.100;5.176;2022-07-03T05:53:08;4.68;;;0.80;;
36411;SDS011;22445;52.100;5.176;2022-07-03T05:55:34;3.72;;;0.90;;
36411;SDS011;22445;52.100;5.176;2022-07-03T05:57:59;2.58;;;1.02;;
36411;SDS011;22445;52.100;5.176;2022-07-03T06:00:25;2.15;;;0.80;;
36411;SDS011;22445;52.100;5.176;2022-07-03T06:02:50;4.18;;;1.20;;
36411;SDS011;22445;52.100;5.176;2022-07-03T06:05:16;6.85;;;1.17;;
36411;SDS011;22445;52.100;5.176;2022-07-03T06:07:41;3.65;;;0.80;;
36411;SDS011;22445;52.100;5.176;2022-07-03T06:10:08;4.80;;;1.20;;
36411;SDS011;22445;52.100;5.176;2022-07-03T06:12:34;3.63;;;1.30;;
36411;SDS011;22445;52.100;5.176;2022-07-03T06:14:59;3.58;;;0.90;;
36411;SDS011;22445;52.100;5.176;2022-07-03T06:17:24;1.83;;;0.70;;
36411;SDS011;22445;52.100;5.176;2022-07-03T06:19:50;3.65;;;1.00;;
36411;SDS011;22445;52.100;5.176;2022-07-03T06:22:15;7.38;;;1.33;;
36411;SDS011;22445;52.100;5.176;2022-07-03T06:24:41;3.90;;;1.27;;
36411;SDS011;22445;52.100;5.176;2022-07-03T06:27:07;5.18;;;1.33;;
36411;SDS011;22445;52.100;5.176;2022-07-03T06:29:32;6.05;;;1.30;;
36411;SDS011;22445;52.100;5.176;2022-07-03T06:31:58;3.10;;;0.98;;
36411;SDS011;22445;52.100;5.176;2022-07-03T06:34:25;4.68;;;1.23;;
36411;SDS011;22445;52.100;5.176;2022-07-03T06:36:50;2.00;;;0.70;;
36411;SDS011;22445;52.100;5.176;2022-07-03T06:39:16;4.82;;;1.52;;
36411;SDS011;22445;52.100;5.176;2022-07-03T06:41:42;4.05;;;1.27;;
36411;SDS011;22445;52.100;5.176;2022-07-03T06:44:07;6.15;;;1.45;;
36411;SDS011;22445;52.100;5.176;2022-07-03T06:46:33;4.07;;;1.27;;
36411;SDS011;22445;52.100;5.176;2022-07-03T06:48:58;3.60;;;0.88;;
36411;SDS011;22445;52.100;5.176;2022-07-03T06:51:24;6.82;;;1.45;;
36411;SDS011;22445;52.100;5.176;2022-07-03T06:53:49;7.03;;;1.70;;
36411;SDS011;22445;52.100;5.176;2022-07-03T06:56:15;6.63;;;1.48;;
36411;SDS011;22445;52.100;5.176;2022-07-03T06:58:40;7.45;;;1.38;;
36411;SDS011;22445;52.100;5.176;2022-07-03T07:01:06;4.57;;;1.50;;
36411;SDS011;22445;52.100;5.176;2022-07-03T07:03:32;3.95;;;1.30;;
36411;SDS011;22445;52.100;5.176;2022-07-03T07:05:57;4.03;;;1.30;;
36411;SDS011;22445;52.100;5.176;2022-07-03T07:08:22;2.30;;;1.27;;
36411;SDS011;22445;52.100;5.176;2022-07-03T07:10:48;4.38;;;1.40;;
36411;SDS011;22445;52.100;5.176;2022-07-03T07:13:14;4.28;;;1.45;;
36411;SDS011;22445;52.100;5.176;2022-07-03T07:15:39;4.57;;;1.27;;
36411;SDS011;22445;52.100;5.176;2022-07-03T07:18:05;3.70;;;1.10;;
36411;SDS011;22445;52.100;5.176;2022-07-03T07:20:30;3.50;;;1.50;;
36411;SDS011;22445;52.100;5.176;2022-07-03T07:22:56;5.07;;;1.77;;
36411;SDS011;22445;52.100;5.176;2022-07-03T07:25:21;6.57;;;1.38;;
36411;SDS011;22445;52.100;5.176;2022-07-03T07:27:47;3.92;;;1.60;;
36411;SDS011;22445;52.100;5.176;2022-07-03T07:30:13;2.83;;;1.10;;
36411;SDS011;22445;52.100;5.176;2022-07-03T07:32:38;3.65;;;0.88;;
36411;SDS011;22445;52.100;5.176;2022-07-03T07:35:04;4.97;;;1.40;;
36411;SDS011;22445;52.100;5.176;2022-07-03T07:37:30;3.33;;;0.98;;
36411;SDS011;22445;52.100;5.176;2022-07-03T07:39:56;3.15;;;0.85;;
36411;SDS011;22445;52.100;5.176;2022-07-03T07:42:21;3.30;;;1.02;;
36411;SDS011;22445;52.100;5.176;2022-07-03T07:44:48;2.00;;;0.98;;
36411;SDS011;22445;52.100;5.176;2022-07-03T07:47:13;2.00;;;0.90;;
36411;SDS011;22445;52.100;5.176;2022-07-03T07:49:39;2.35;;;0.80;;
36411;SDS011;22445;52.100;5.176;2022-07-03T07:52:04;2.90;;;0.82;;
36411;SDS011;22445;52.100;5.176;2022-07-03T07:54:30;2.83;;;1.00;;
36411;SDS011;22445;52.100;5.176;2022-07-03T07:56:55;2.40;;;0.90;;
36411;SDS011;22445;52.100;5.176;2022-07-03T07:59:21;2.08;;;0.90;;
36411;SDS011;22445;52.100;5.176;2022-07-03T08:01:46;2.05;;;0.82;;
36411;SDS011;22445;52.100;5.176;2022-07-03T08:04:30;3.67;;;0.90;;
36411;SDS011;22445;52.100;5.176;2022-07-03T08:07:14;4.25;;;0.90;;
36411;SDS011;22445;52.100;5.176;2022-07-03T08:09:40;4.18;;;0.90;;
36411;SDS011;22445;52.100;5.176;2022-07-03T08:12:05;2.83;;;0.85;;
36411;SDS011;22445;52.100;5.176;2022-07-03T08:14:31;2.92;;;1.23;;
36411;SDS011;22445;52.100;5.176;2022-07-03T08:16:56;4.25;;;1.00;;
36411;SDS011;22445;52.100;5.176;2022-07-03T08:19:22;3.10;;;0.77;;
36411;SDS011;22445;52.100;5.176;2022-07-03T08:21:47;2.75;;;0.95;;
36411;SDS011;22445;52.100;5.176;2022-07-03T08:24:13;2.08;;;1.00;;
36411;SDS011;22445;52.100;5.176;2022-07-03T08:26:38;4.47;;;1.35;;
36411;SDS011;22445;52.100;5.176;2022-07-03T08:29:04;3.63;;;1.00;;
36411;SDS011;22445;52.100;5.176;2022-07-03T08:31:29;2.67;;;0.80;;
36411;SDS011;22445;52.100;5.176;2022-07-03T08:33:55;2.75;;;0.80;;
36411;SDS011;22445;52.100;5.176;2022-07-03T08:36:20;3.10;;;0.85;;
36411;SDS011;22445;52.100;5.176;2022-07-03T08:38:46;1.83;;;0.90;;
36411;SDS011;22445;52.100;5.176;2022-07-03T08:41:11;2.78;;;1.10;;
36411;SDS011;22445;52.100;5.176;2022-07-03T08:43:37;3.95;;;0.80;;
36411;SDS011;22445;52.100;5.176;2022-07-03T08:46:04;2.67;;;0.93;;
36411;SDS011;22445;52.100;5.176;2022-07-03T08:48:30;3.25;;;1.02;;
36411;SDS011;22445;52.100;5.176;2022-07-03T08:50:58;2.30;;;0.90;;
36411;SDS011;22445;52.100;5.176;2022-07-03T08:53:25;3.10;;;0.68;;
36411;SDS011;22445;52.100;5.176;2022-07-03T08:55:51;3.22;;;0.88;;
36411;SDS011;22445;52.100;5.176;2022-07-03T08:58:17;5.20;;;1.10;;
36411;SDS011;22445;52.100;5.176;2022-07-03T09:00:44;3.60;;;1.13;;
36411;SDS011;22445;52.100;5.176;2022-07-03T09:03:11;2.17;;;0.77;;
36411;SDS011;22445;52.100;5.176;2022-07-03T09:05:37;6.63;;;1.02;;
36411;SDS011;22445;52.100;5.176;2022-07-03T09:08:05;2.15;;;0.70;;
36411;SDS011;22445;52.100;5.176;2022-07-03T09:10:32;2.90;;;0.95;;
36411;SDS011;22445;52.100;5.176;2022-07-03T09:12:57;4.45;;;0.88;;
36411;SDS011;22445;52.100;5.176;2022-07-03T09:15:23;3.15;;;0.73;;
36411;SDS011;22445;52.100;5.176;2022-07-03T09:20:34;2.10;;;0.50;;
36411;SDS011;22445;52.100;5.176;2022-07-03T09:25:52;2.58;;;0.90;;
36411;SDS011;22445;52.100;5.176;2022-07-03T09:31:16;1.88;;;0.70;;
36411;SDS011;22445;52.100;5.176;2022-07-03T09:33:51;2.08;;;0.82;;
36411;SDS011;22445;52.100;5.176;2022-07-03T09:47:17;2.92;;;1.00;;
36411;SDS011;22445;52.100;5.176;2022-07-03T09:49:59;2.83;;;0.60;;
36411;SDS011;22445;52.100;5.176;2022-07-03T09:52:43;2.10;;;0.50;;
36411;SDS011;22445;52.100;5.176;2022-07-03T09:57:36;1.00;;;0.52;;
36411;SDS011;22445;52.100;5.176;2022-07-03T10:03:02;3.35;;;0.70;;
36411;SDS011;22445;52.100;5.176;2022-07-03T10:05:36;2.40;;;0.70;;
36411;SDS011;22445;52.100;5.176;2022-07-03T10:08:04;1.67;;;0.88;;
36411;SDS011;22445;52.100;5.176;2022-07-03T10:10:34;2.33;;;0.90;;
36411;SDS011;22445;52.100;5.176;2022-07-03T10:13:01;3.35;;;0.93;;
36411;SDS011;22445;52.100;5.176;2022-07-03T10:15:28;3.17;;;0.65;;
36411;SDS011;22445;52.100;5.176;2022-07-03T10:17:57;1.63;;;0.82;;
36411;SDS011;22445;52.100;5.176;2022-07-03T10:20:25;2.03;;;0.73;;
36411;SDS011;22445;52.100;5.176;2022-07-03T10:22:52;1.50;;;0.73;;
36411;SDS011;22445;52.100;5.176;2022-07-03T10:25:18;2.70;;;0.77;;
36411;SDS011;22445;52.100;5.176;2022-07-03T10:27:44;2.90;;;0.90;;
36411;SDS011;22445;52.100;5.176;2022-07-03T10:30:13;2.25;;;0.68;;
36411;SDS011;22445;52.100;5.176;2022-07-03T10:32:40;2.90;;;0.90;;
36411;SDS011;22445;52.100;5.176;2022-07-03T10:35:07;2.75;;;1.20;;
36411;SDS011;22445;52.100;5.176;2022-07-03T10:37:38;2.58;;;0.90;;
36411;SDS011;22445;52.100;5.176;2022-07-03T10:40:21;2.83;;;1.20;;
36411;SDS011;22445;52.100;5.176;2022-07-03T10:43:27;2.53;;;0.90;;
36411;SDS011;22445;52.100;5.176;2022-07-03T10:46:14;2.00;;;1.15;;
36411;SDS011;22445;52.100;5.176;2022-07-03T10:49:16;3.30;;;1.17;;
36411;SDS011;22445;52.100;5.176;2022-07-03T11:07:22;3.05;;;0.90;;
36411;SDS011;22445;52.100;5.176;2022-07-03T11:12:57;1.67;;;0.95;;
36411;SDS011;22445;52.100;5.176;2022-07-03T11:15:32;3.25;;;1.10;;
36411;SDS011;22445;52.100;5.176;2022-07-03T11:38:45;2.13;;;0.98;;
36411;SDS011;22445;52.100;5.176;2022-07-03T11:41:16;2.63;;;0.80;;
36411;SDS011;22445;52.100;5.176;2022-07-03T11:43:48;1.42;;;0.63;;
36411;SDS011;22445;52.100;5.176;2022-07-03T11:46:27;4.05;;;1.10;;
36411;SDS011;22445;52.100;5.176;2022-07-03T11:49:13;0.88;;;0.65;;
36411;SDS011;22445;52.100;5.176;2022-07-03T11:51:41;2.28;;;0.90;;
36411;SDS011;22445;52.100;5.176;2022-07-03T11:54:07;4.10;;;1.10;;
36411;SDS011;22445;52.100;5.176;2022-07-03T11:56:34;1.38;;;0.60;;
36411;SDS011;22445;52.100;5.176;2022-07-03T11:59:01;1.83;;;0.73;;
36411;SDS011;22445;52.100;5.176;2022-07-03T12:01:29;2.58;;;0.88;;
36411;SDS011;22445;52.100;5.176;2022-07-03T12:12:04;4.38;;;1.90;;
36411;SDS011;22445;52.100;5.176;2022-07-03T12:17:09;5.15;;;2.05;;
36411;SDS011;22445;52.100;5.176;2022-07-03T12:19:37;4.00;;;1.58;;
36411;SDS011;22445;52.100;5.176;2022-07-03T12:22:03;3.05;;;2.00;;
36411;SDS011;22445;52.100;5.176;2022-07-03T12:24:29;2.72;;;1.70;;
36411;SDS011;22445;52.100;5.176;2022-07-03T12:26:55;3.85;;;1.85;;
36411;SDS011;22445;52.100;5.176;2022-07-03T12:29:20;3.28;;;1.63;;
36411;SDS011;22445;52.100;5.176;2022-07-03T12:31:47;2.05;;;0.90;;
36411;SDS011;22445;52.100;5.176;2022-07-03T12:34:14;2.85;;;1.00;;
36411;SDS011;22445;52.100;5.176;2022-07-03T12:36:40;1.85;;;0.70;;
36411;SDS011;22445;52.100;5.176;2022-07-03T12:39:23;1.95;;;0.70;;
36411;SDS011;22445;52.100;5.176;2022-07-03T12:41:49;0.60;;;0.40;;
36411;SDS011;22445;52.100;5.176;2022-07-03T12:44:15;0.88;;;0.63;;
36411;SDS011;22445;52.100;5.176;2022-07-03T12:46:46;1.73;;;0.60;;
36411;SDS011;22445;52.100;5.176;2022-07-03T12:49:12;3.08;;;0.68;;
36411;SDS011;22445;52.100;5.176;2022-07-03T12:51:45;1.10;;;0.40;;
36411;SDS011;22445;52.100;5.176;2022-07-03T12:57:01;0.43;;;0.43;;
36411;SDS011;22445;52.100;5.176;2022-07-03T13:00:00;2.33;;;0.60;;
36411;SDS011;22445;52.100;5.176;2022-07-03T13:02:27;1.05;;;0.77;;
36411;SDS011;22445;52.100;5.176;2022-07-03T13:04:52;2.05;;;0.70;;
36411;SDS011;22445;52.100;5.176;2022-07-03T13:07:18;1.83;;;0.73;;
36411;SDS011;22445;52.100;5.176;2022-07-03T13:09:43;1.38;;;0.90;;
36411;SDS011;22445;52.100;5.176;2022-07-03T13:12:23;1.20;;;0.50;;
36411;SDS011;22445;52.100;5.176;2022-07-03T13:14:55;2.15;;;1.27;;
36411;SDS011;22445;52.100;5.176;2022-07-03T13:20:23;1.70;;;1.00;;
36411;SDS011;22445;52.100;5.176;2022-07-03T13:22:50;2.42;;;0.73;;
36411;SDS011;22445;52.100;5.176;2022-07-03T13:25:17;2.33;;;0.70;;
36411;SDS011;22445;52.100;5.176;2022-07-03T13:27:42;1.77;;;0.63;;
36411;SDS011;22445;52.100;5.176;2022-07-03T13:30:10;2.05;;;0.63;;
36411;SDS011;22445;52.100;5.176;2022-07-03T13:32:39;3.95;;;0.68;;
36411;SDS011;22445;52.100;5.176;2022-07-03T13:35:05;2.80;;;0.50;;
36411;SDS011;22445;52.100;5.176;2022-07-03T13:37:31;1.95;;;0.60;;
36411;SDS011;22445;52.100;5.176;2022-07-03T13:39:56;2.50;;;0.70;;
36411;SDS011;22445;52.100;5.176;2022-07-03T13:42:22;1.45;;;0.40;;
36411;SDS011;22445;52.100;5.176;2022-07-03T13:44:47;2.70;;;0.80;;
36411;SDS011;22445;52.100;5.176;2022-07-03T13:47:15;1.58;;;0.55;;
36411;SDS011;22445;52.100;5.176;2022-07-03T13:49:41;4.22;;;0.90;;
36411;SDS011;22445;52.100;5.176;2022-07-03T13:52:07;1.35;;;0.55;;
36411;SDS011;22445;52.100;5.176;2022-07-03T13:54:32;1.23;;;0.47;;
36411;SDS011;22445;52.100;5.176;2022-07-03T13:56:58;1.20;;;0.60;;
36411;SDS011;22445;52.100;5.176;2022-07-03T13:59:24;2.85;;;0.77;;
36411;SDS011;22445;52.100;5.176;2022-07-03T14:01:50;1.58;;;0.60;;
36411;SDS011;22445;52.100;5.176;2022-07-03T14:04:15;1.42;;;0.60;;
36411;SDS011;22445;52.100;5.176;2022-07-03T14:06:41;3.17;;;0.88;;
36411;SDS011;22445;52.100;5.176;2022-07-03T14:09:06;1.00;;;0.60;;
36411;SDS011;22445;52.100;5.176;2022-07-03T14:11:32;1.85;;;0.60;;
36411;SDS011;22445;52.100;5.176;2022-07-03T14:13:57;4.28;;;0.85;;
36411;SDS011;22445;52.100;5.176;2022-07-03T14:16:23;1.13;;;0.50;;
36411;SDS011;22445;52.100;5.176;2022-07-03T14:18:48;1.95;;;0.68;;
36411;SDS011;22445;52.100;5.176;2022-07-03T14:21:14;1.75;;;0.65;;
36411;SDS011;22445;52.100;5.176;2022-07-03T14:23:39;2.33;;;0.75;;
36411;SDS011;22445;52.100;5.176;2022-07-03T14:26:05;1.67;;;0.68;;
36411;SDS011;22445;52.100;5.176;2022-07-03T14:28:31;1.02;;;0.60;;
36411;SDS011;22445;52.100;5.176;2022-07-03T14:31:15;6.05;;;0.80;;
36411;SDS011;22445;52.100;5.176;2022-07-03T14:34:01;2.60;;;0.68;;
36411;SDS011;22445;52.100;5.176;2022-07-03T14:36:26;1.60;;;0.57;;
36411;SDS011;22445;52.100;5.176;2022-07-03T14:38:52;0.88;;;0.50;;
36411;SDS011;22445;52.100;5.176;2022-07-03T14:41:17;0.55;;;0.40;;
36411;SDS011;22445;52.100;5.176;2022-07-03T14:43:43;1.13;;;0.38;;
36411;SDS011;22445;52.100;5.176;2022-07-03T14:46:08;1.45;;;0.50;;
36411;SDS011;22445;52.100;5.176;2022-07-03T14:48:34;1.85;;;0.70;;
36411;SDS011;22445;52.100;5.176;2022-07-03T14:51:00;1.42;;;0.60;;
36411;SDS011;22445;52.100;5.176;2022-07-03T14:53:25;2.28;;;0.75;;
36411;SDS011;22445;52.100;5.176;2022-07-03T14:55:51;1.00;;;0.50;;
36411;SDS011;22445;52.100;5.176;2022-07-03T14:58:21;1.92;;;0.68;;
36411;SDS011;22445;52.100;5.176;2022-07-03T15:00:48;2.10;;;0.60;;
36411;SDS011;22445;52.100;5.176;2022-07-03T15:03:16;1.35;;;0.40;;
36411;SDS011;22445;52.100;5.176;2022-07-03T15:05:56;4.43;;;0.63;;
36411;SDS011;22445;52.100;5.176;2022-07-03T15:10:54;1.42;;;0.70;;
36411;SDS011;22445;52.100;5.176;2022-07-03T15:13:21;1.55;;;0.80;;
36411;SDS011;22445;52.100;5.176;2022-07-03T15:15:48;1.88;;;0.60;;
36411;SDS011;22445;52.100;5.176;2022-07-03T15:18:18;1.40;;;0.50;;
36411;SDS011;22445;52.100;5.176;2022-07-03T15:20:45;2.63;;;0.88;;
36411;SDS011;22445;52.100;5.176;2022-07-03T15:23:12;1.75;;;0.40;;
36411;SDS011;22445;52.100;5.176;2022-07-03T15:25:38;2.25;;;0.73;;
36411;SDS011;22445;52.100;5.176;2022-07-03T15:28:05;2.55;;;0.50;;
36411;SDS011;22445;52.100;5.176;2022-07-03T15:30:34;1.92;;;0.77;;
36411;SDS011;22445;52.100;5.176;2022-07-03T15:33:00;2.90;;;0.60;;
36411;SDS011;22445;52.100;5.176;2022-07-03T15:35:25;0.90;;;0.50;;
36411;SDS011;22445;52.100;5.176;2022-07-03T15:45:56;1.48;;;0.60;;
36411;SDS011;22445;52.100;5.176;2022-07-03T15:51:33;2.72;;;0.60;;
36411;SDS011;22445;52.100;5.176;2022-07-03T15:54:23;1.52;;;0.60;;
36411;SDS011;22445;52.100;5.176;2022-07-03T15:57:44;0.98;;;0.40;;
36411;SDS011;22445;52.100;5.176;2022-07-03T16:00:22;2.92;;;0.60;;
36411;SDS011;22445;52.100;5.176;2022-07-03T16:05:54;1.23;;;0.55;;
36411;SDS011;22445;52.100;5.176;2022-07-03T16:08:20;1.85;;;0.65;;
36411;SDS011;22445;52.100;5.176;2022-07-03T16:10:46;2.15;;;0.75;;
36411;SDS011;22445;52.100;5.176;2022-07-03T16:13:12;2.70;;;0.90;;
36411;SDS011;22445;52.100;5.176;2022-07-03T16:15:38;1.50;;;0.50;;
36411;SDS011;22445;52.100;5.176;2022-07-03T16:18:06;1.65;;;0.60;;
36411;SDS011;22445;52.100;5.176;2022-07-03T16:20:32;2.45;;;0.65;;
36411;SDS011;22445;52.100;5.176;2022-07-03T16:23:00;2.13;;;0.70;;
36411;SDS011;22445;52.100;5.176;2022-07-03T16:25:28;1.67;;;0.50;;
36411;SDS011;22445;52.100;5.176;2022-07-03T16:27:56;2.90;;;0.68;;
36411;SDS011;22445;52.100;5.176;2022-07-03T16:30:21;2.42;;;0.90;;
36411;SDS011;22445;52.100;5.176;2022-07-03T16:32:47;2.72;;;0.68;;
36411;SDS011;22445;52.100;5.176;2022-07-03T16:35:16;2.85;;;0.80;;
36411;SDS011;22445;52.100;5.176;2022-07-03T16:37:58;2.58;;;0.70;;
36411;SDS011;22445;52.100;5.176;2022-07-03T16:40:26;3.67;;;1.45;;
36411;SDS011;22445;52.100;5.176;2022-07-03T16:42:53;2.90;;;0.68;;
36411;SDS011;22445;52.100;5.176;2022-07-03T16:45:19;2.75;;;0.98;;
36411;SDS011;22445;52.100;5.176;2022-07-03T16:47:47;5.15;;;0.95;;
36411;SDS011;22445;52.100;5.176;2022-07-03T16:50:14;1.40;;;0.63;;
36411;SDS011;22445;52.100;5.176;2022-07-03T16:52:42;2.10;;;0.90;;
36411;SDS011;22445;52.100;5.176;2022-07-03T16:55:11;3.25;;;0.68;;
36411;SDS011;22445;52.100;5.176;2022-07-03T17:00:23;2.75;;;0.77;;
36411;SDS011;22445;52.100;5.176;2022-07-03T17:02:50;5.10;;;0.98;;